createdAt,value
2023-05-04T00:00:44.830Z,12.22
2023-05-04T00:03:11.961Z,12.19
2023-05-04T00:05:39.027Z,12.18
2023-05-04T00:08:06.050Z,12.14
2023-05-04T00:10:33.036Z,12.11
2023-05-04T00:13:00.106Z,12.07
2023-05-04T00:15:28.164Z,12.04
2023-05-04T00:17:55.363Z,12.01
2023-05-04T00:20:22.470Z,11.99
2023-05-04T00:22:49.518Z,11.95
2023-05-04T00:25:16.876Z,11.93
2023-05-04T00:27:43.886Z,11.90
2023-05-04T00:30:11.821Z,11.86
2023-05-04T00:32:38.853Z,11.82
2023-05-04T00:35:06.886Z,11.80
2023-05-04T00:37:33.891Z,11.75
2023-05-04T00:40:00.859Z,11.72
2023-05-04T00:42:27.846Z,11.67
2023-05-04T00:44:54.805Z,11.63
2023-05-04T00:47:23.226Z,11.59
2023-05-04T00:49:52.675Z,11.56
2023-05-04T00:52:21.028Z,11.52
2023-05-04T00:54:48.204Z,11.47
2023-05-04T00:57:17.269Z,11.44
2023-05-04T00:59:44.286Z,11.42
2023-05-04T01:02:11.378Z,11.39
2023-05-04T01:04:38.739Z,11.39
2023-05-04T01:07:30.402Z,11.33
2023-05-04T01:10:10.652Z,11.27
2023-05-04T01:13:10.045Z,11.23
2023-05-04T01:15:37.505Z,11.19
2023-05-04T01:18:04.694Z,11.16
2023-05-04T01:20:32.099Z,11.15
2023-05-04T01:23:00.153Z,11.14
2023-05-04T01:25:48.873Z,11.10
2023-05-04T01:28:27.559Z,11.07
2023-05-04T01:30:59.970Z,11.05
2023-05-04T01:33:29.030Z,10.99
2023-05-04T01:35:56.581Z,10.97
2023-05-04T01:38:23.858Z,10.93
2023-05-04T01:40:50.855Z,10.90
2023-05-04T01:43:17.858Z,10.88
2023-05-04T01:45:44.917Z,10.87
2023-05-04T01:48:12.334Z,10.83
2023-05-04T01:50:39.364Z,10.80
2023-05-04T01:53:06.383Z,10.76
2023-05-04T01:55:33.487Z,10.73
2023-05-04T01:58:00.642Z,10.73
2023-05-04T02:00:28.623Z,10.70
2023-05-04T02:02:55.640Z,10.69
2023-05-04T02:05:22.722Z,10.68
2023-05-04T02:07:49.738Z,10.67
2023-05-04T02:10:16.857Z,10.65
2023-05-04T02:12:43.932Z,10.62
2023-05-04T02:15:11.713Z,10.62
2023-05-04T02:17:38.787Z,10.59
2023-05-04T02:20:07.208Z,10.60
2023-05-04T02:22:36.747Z,10.59
2023-05-04T02:25:04.123Z,10.57
2023-05-04T02:27:31.652Z,10.57
2023-05-04T02:29:59.213Z,10.55
2023-05-04T02:32:26.850Z,10.54
2023-05-04T02:34:54.084Z,10.52
2023-05-04T02:37:21.127Z,10.48
2023-05-04T02:39:48.218Z,10.46
2023-05-04T02:42:15.297Z,10.44
2023-05-04T02:44:42.364Z,10.41
2023-05-04T02:47:09.770Z,10.39
2023-05-04T02:49:36.957Z,10.34
2023-05-04T02:52:04.161Z,10.32
2023-05-04T02:54:31.189Z,10.29
2023-05-04T02:56:58.263Z,10.26
2023-05-04T02:59:25.227Z,10.25
2023-05-04T03:01:52.421Z,10.22
2023-05-04T03:04:19.683Z,10.19
2023-05-04T03:06:47.538Z,10.17
2023-05-04T03:09:14.556Z,10.12
2023-05-04T03:11:41.745Z,10.08
2023-05-04T03:14:08.801Z,10.05
2023-05-04T03:16:36.011Z,10.02
2023-05-04T03:19:03.118Z,10.00
2023-05-04T03:21:30.593Z,9.97
2023-05-04T03:23:58.961Z,9.94
2023-05-04T03:26:25.956Z,9.93
2023-05-04T03:28:53.262Z,9.90
2023-05-04T03:31:20.281Z,9.88
2023-05-04T03:33:47.428Z,9.85
2023-05-04T03:36:14.519Z,9.83
2023-05-04T03:38:42.247Z,9.81
2023-05-04T03:41:10.729Z,9.80
2023-05-04T03:43:37.674Z,9.76
2023-05-04T03:46:04.769Z,9.74
2023-05-04T03:48:31.828Z,9.72
2023-05-04T03:50:59.042Z,9.70
2023-05-04T03:53:29.131Z,9.68
2023-05-04T03:55:56.161Z,9.67
2023-05-04T03:58:23.219Z,9.66
2023-05-04T04:00:50.249Z,9.65
2023-05-04T04:03:17.453Z,9.65
2023-05-04T04:05:44.908Z,9.64
2023-05-04T04:08:12.070Z,9.63
2023-05-04T04:10:39.085Z,9.61
2023-05-04T04:13:06.364Z,9.62
2023-05-04T04:15:34.629Z,9.62
2023-05-04T04:18:01.859Z,9.64
2023-05-04T04:20:29.052Z,9.66
2023-05-04T04:22:56.334Z,9.67
2023-05-04T04:25:24.302Z,9.71
2023-05-04T04:27:51.836Z,9.75
2023-05-04T04:30:19.079Z,9.78
2023-05-04T04:32:47.123Z,9.81
2023-05-04T04:35:14.426Z,9.85
2023-05-04T04:37:41.604Z,9.91
2023-05-04T04:40:09.932Z,9.97
2023-05-04T04:42:37.025Z,10.03
2023-05-04T04:45:07.159Z,10.10
2023-05-04T04:47:36.315Z,10.21
2023-05-04T04:50:05.005Z,10.29
2023-05-04T04:52:33.541Z,10.36
2023-05-04T04:55:01.402Z,10.41
2023-05-04T04:57:30.526Z,10.45
2023-05-04T04:59:58.701Z,10.50
2023-05-04T05:02:26.707Z,10.52
2023-05-04T05:04:54.563Z,10.56
2023-05-04T05:07:21.743Z,10.60
2023-05-04T05:09:49.035Z,10.66
2023-05-04T05:12:17.254Z,10.72
2023-05-04T05:14:45.765Z,10.78
2023-05-04T05:17:12.896Z,10.85
2023-05-04T05:19:42.105Z,10.93
2023-05-04T05:22:09.416Z,11.01
2023-05-04T05:24:36.468Z,11.10
2023-05-04T05:27:06.500Z,11.18
2023-05-04T05:29:33.591Z,11.25
2023-05-04T05:32:00.591Z,11.33
2023-05-04T05:34:27.548Z,11.41
2023-05-04T05:36:54.705Z,11.50
2023-05-04T05:39:21.961Z,11.62
2023-05-04T05:41:49.022Z,11.75
2023-05-04T05:44:16.163Z,11.88
2023-05-04T05:46:45.845Z,11.97
2023-05-04T05:49:12.928Z,12.07
2023-05-04T05:51:39.885Z,12.18
2023-05-04T05:54:07.208Z,12.27
2023-05-04T05:56:34.236Z,12.35
2023-05-04T05:59:01.258Z,12.47
2023-05-04T06:01:28.226Z,12.54
2023-05-04T06:03:55.815Z,12.60
2023-05-04T06:06:22.971Z,12.70
2023-05-04T06:08:49.978Z,12.81
2023-05-04T06:11:17.204Z,12.89
2023-05-04T06:13:44.190Z,12.99
2023-05-04T06:16:12.075Z,13.13
2023-05-04T06:18:39.138Z,13.25
2023-05-04T06:21:06.398Z,13.33
2023-05-04T06:23:33.856Z,13.44
2023-05-04T06:26:00.962Z,13.58
2023-05-04T06:28:28.017Z,13.70
2023-05-04T06:30:55.112Z,13.82
2023-05-04T06:33:22.363Z,13.94
2023-05-04T06:35:49.533Z,14.06
2023-05-04T06:38:16.616Z,14.21
2023-05-04T06:40:44.949Z,14.42
2023-05-04T06:43:14.726Z,14.61
2023-05-04T06:45:41.760Z,14.71
2023-05-04T06:48:08.909Z,14.81
2023-05-04T06:50:36.239Z,14.90
2023-05-04T06:53:11.765Z,15.01
2023-05-04T06:55:38.931Z,15.10
2023-05-04T06:58:08.422Z,15.19
2023-05-04T07:00:36.276Z,15.28
2023-05-04T07:03:03.873Z,15.32
2023-05-04T07:05:34.043Z,15.41
2023-05-04T07:08:01.958Z,15.52
2023-05-04T07:10:29.236Z,15.54
2023-05-04T07:12:56.385Z,15.59
2023-05-04T07:15:23.425Z,15.68
2023-05-04T07:17:50.868Z,15.79
2023-05-04T07:20:17.972Z,15.89
2023-05-04T07:22:45.056Z,16.02
2023-05-04T07:25:12.284Z,16.15
2023-05-04T07:27:39.859Z,16.26
2023-05-04T07:30:08.548Z,16.37
2023-05-04T07:32:35.749Z,16.45
2023-05-04T07:35:02.755Z,16.57
2023-05-04T07:37:30.056Z,16.70
2023-05-04T07:40:00.193Z,16.82
2023-05-04T07:42:29.005Z,16.92
2023-05-04T07:44:55.961Z,16.96
2023-05-04T07:47:24.385Z,17.03
2023-05-04T07:49:51.732Z,17.10
2023-05-04T07:52:18.756Z,17.17
2023-05-04T07:54:45.784Z,17.25
2023-05-04T07:57:12.795Z,17.34
2023-05-04T07:59:39.867Z,17.42
2023-05-04T08:02:06.929Z,17.61
2023-05-04T08:04:33.968Z,17.80
2023-05-04T08:07:01.648Z,17.94
2023-05-04T08:09:28.661Z,18.10
2023-05-04T08:11:55.937Z,18.25
2023-05-04T08:14:23.076Z,18.41
2023-05-04T08:16:50.112Z,18.51
2023-05-04T08:19:18.883Z,18.65
2023-05-04T08:21:45.856Z,18.76
2023-05-04T08:24:13.104Z,18.88
2023-05-04T08:26:41.378Z,18.97
2023-05-04T08:29:10.768Z,19.07
2023-05-04T08:31:38.316Z,19.15
2023-05-04T08:34:05.601Z,19.18
2023-05-04T08:36:32.663Z,19.17
2023-05-04T08:38:59.696Z,19.22
2023-05-04T08:41:26.730Z,19.30
2023-05-04T08:43:53.868Z,19.31
2023-05-04T08:46:21.368Z,19.37
2023-05-04T08:48:48.538Z,19.44
2023-05-04T08:51:16.099Z,19.54
2023-05-04T08:53:47.688Z,19.64
2023-05-04T08:56:16.819Z,19.79
2023-05-04T08:59:01.600Z,19.97
2023-05-04T09:01:29.956Z,20.12
2023-05-04T09:03:57.892Z,20.24
2023-05-04T09:06:25.515Z,20.41
2023-05-04T09:08:52.772Z,20.50
2023-05-04T09:11:19.841Z,20.56
2023-05-04T09:13:47.376Z,20.60
2023-05-04T09:16:16.249Z,20.67
2023-05-04T09:18:44.796Z,20.79
2023-05-04T09:21:12.665Z,20.87
2023-05-04T09:23:51.355Z,20.97
2023-05-04T09:26:33.202Z,21.01
2023-05-04T09:29:14.643Z,21.06
2023-05-04T09:31:47.705Z,21.12
2023-05-04T09:34:15.469Z,21.13
2023-05-04T09:36:42.636Z,21.17
2023-05-04T09:39:14.287Z,21.20
2023-05-04T09:41:42.197Z,21.15
2023-05-04T09:44:27.609Z,21.17
2023-05-04T09:46:58.965Z,21.20
2023-05-04T09:49:37.918Z,21.28
2023-05-04T09:52:06.953Z,21.36
2023-05-04T09:54:35.869Z,21.43
2023-05-04T09:57:13.062Z,21.45
2023-05-04T09:59:41.465Z,21.52
2023-05-04T10:02:21.947Z,21.58
2023-05-04T10:04:52.355Z,21.69
2023-05-04T10:07:20.897Z,21.77
2023-05-04T10:09:50.280Z,21.80
2023-05-04T10:12:17.912Z,21.89
2023-05-04T10:14:47.008Z,21.99
2023-05-04T10:17:47.714Z,21.99
2023-05-04T10:20:47.435Z,21.95
2023-05-04T10:24:08.448Z,21.97
2023-05-04T10:27:08.276Z,22.02
2023-05-04T10:29:36.517Z,22.11
2023-05-04T10:32:04.246Z,22.21
2023-05-04T10:34:35.598Z,22.31
2023-05-04T10:37:04.262Z,22.38
2023-05-04T10:39:34.274Z,22.45
2023-05-04T10:42:06.052Z,22.52
2023-05-04T10:44:51.401Z,22.58
2023-05-04T10:47:32.387Z,22.61
2023-05-04T10:50:16.033Z,22.64
2023-05-04T10:52:48.688Z,22.64
2023-05-04T10:55:16.691Z,22.65
2023-05-04T10:57:50.994Z,22.70
2023-05-04T11:00:19.240Z,22.77
2023-05-04T11:02:47.815Z,22.86
2023-05-04T11:05:20.503Z,22.89
2023-05-04T11:07:52.872Z,22.97
2023-05-04T11:10:25.575Z,23.05
2023-05-04T11:12:55.390Z,23.11
2023-05-04T11:15:22.598Z,23.17
2023-05-04T11:17:52.848Z,23.24
2023-05-04T11:20:27.496Z,23.29
2023-05-04T11:22:55.090Z,23.34
2023-05-04T11:25:29.978Z,23.34
2023-05-04T11:27:58.853Z,23.39
2023-05-04T11:30:36.578Z,23.48
2023-05-04T11:33:14.419Z,23.58
2023-05-04T11:35:45.221Z,23.67
2023-05-04T11:38:18.489Z,23.74
2023-05-04T11:40:48.869Z,23.79
2023-05-04T11:43:17.013Z,23.87
2023-05-04T11:45:46.433Z,23.94
2023-05-04T11:48:13.648Z,23.99
2023-05-04T11:50:40.875Z,24.07
2023-05-04T11:53:14.222Z,24.20
2023-05-04T11:55:42.645Z,24.27
2023-05-04T11:58:12.771Z,24.37
2023-05-04T12:00:47.062Z,24.48
2023-05-04T12:03:18.184Z,24.61
2023-05-04T12:05:51.751Z,24.70
2023-05-04T12:08:29.893Z,24.78
2023-05-04T12:11:16.516Z,24.85
2023-05-04T12:13:45.416Z,24.91
2023-05-04T12:16:18.426Z,24.99
2023-05-04T12:18:47.491Z,25.08
2023-05-04T12:21:20.029Z,25.24
2023-05-04T12:23:47.817Z,25.42
2023-05-04T12:26:18.131Z,25.58
2023-05-04T12:28:47.322Z,25.74
2023-05-04T12:31:14.507Z,25.86
2023-05-04T12:33:41.790Z,25.98
2023-05-04T12:36:10.238Z,26.09
2023-05-04T12:38:38.282Z,26.21
2023-05-04T12:41:07.503Z,26.33
2023-05-04T12:43:34.628Z,26.43
2023-05-04T12:46:01.667Z,26.49
2023-05-04T12:48:31.588Z,26.45
2023-05-04T12:51:00.371Z,26.38
2023-05-04T12:53:30.034Z,26.36
2023-05-04T12:55:57.422Z,26.36
2023-05-04T12:58:24.516Z,26.32
2023-05-04T13:00:51.896Z,26.31
2023-05-04T13:03:19.382Z,26.37
2023-05-04T13:05:48.369Z,26.41
2023-05-04T13:08:16.876Z,26.48
2023-05-04T13:10:46.475Z,26.54
2023-05-04T13:13:17.402Z,26.58
2023-05-04T13:15:45.048Z,26.63
2023-05-04T13:18:13.070Z,26.70
2023-05-04T13:20:40.835Z,26.76
2023-05-04T13:23:07.999Z,26.86
2023-05-04T13:25:35.234Z,27.00
2023-05-04T13:28:02.394Z,27.11
2023-05-04T13:30:29.913Z,27.15
2023-05-04T13:32:57.019Z,27.19
2023-05-04T13:35:24.205Z,27.26
2023-05-04T13:37:51.651Z,27.37
2023-05-04T13:40:18.790Z,27.37
2023-05-04T13:42:46.371Z,27.34
2023-05-04T13:45:13.726Z,27.29
2023-05-04T13:47:40.837Z,27.32
2023-05-04T13:50:11.151Z,27.33
2023-05-04T13:52:38.342Z,27.38
2023-05-04T13:55:06.190Z,27.39
2023-05-04T13:57:33.419Z,27.49
2023-05-04T14:02:30.629Z,27.69
2023-05-04T14:04:57.723Z,27.77
2023-05-04T14:07:24.765Z,27.77
2023-05-04T14:09:52.444Z,27.67
2023-05-04T14:12:21.267Z,27.77
2023-05-04T14:14:48.876Z,27.94
2023-05-04T14:17:15.966Z,28.05
2023-05-04T14:19:45.154Z,28.12
2023-05-04T14:22:12.630Z,28.14
2023-05-04T14:24:42.526Z,28.10
2023-05-04T14:27:09.782Z,28.05
2023-05-04T14:29:36.828Z,28.04
2023-05-04T14:32:04.378Z,27.99
2023-05-04T14:34:32.775Z,27.92
2023-05-04T14:36:59.729Z,27.78
2023-05-04T14:39:26.780Z,27.59
2023-05-04T14:41:54.032Z,27.49
2023-05-04T14:44:22.687Z,27.38
2023-05-04T14:46:49.777Z,27.25
2023-05-04T14:49:28.782Z,27.19
2023-05-04T14:52:03.826Z,27.30
2023-05-04T14:54:31.183Z,27.41
2023-05-04T14:56:59.082Z,27.49
2023-05-04T14:59:26.754Z,27.58
2023-05-04T15:01:55.001Z,27.73
2023-05-04T15:04:23.062Z,28.09
2023-05-04T15:06:50.480Z,28.60
2023-05-04T15:09:17.569Z,29.23
2023-05-04T15:11:44.558Z,29.81
2023-05-04T15:14:18.054Z,30.39
2023-05-04T15:16:47.917Z,30.91
2023-05-04T15:19:15.632Z,31.05
2023-05-04T15:21:42.880Z,31.02
2023-05-04T15:24:10.398Z,31.01
2023-05-04T15:26:37.613Z,30.74
2023-05-04T15:29:05.328Z,30.39
2023-05-04T15:31:32.565Z,30.02
2023-05-04T15:34:01.168Z,29.92
2023-05-04T15:36:28.508Z,30.10
2023-05-04T15:38:55.572Z,30.40
2023-05-04T15:41:22.876Z,30.85
2023-05-04T15:43:50.116Z,31.19
2023-05-04T15:46:17.211Z,31.16
2023-05-04T15:48:44.360Z,31.06
2023-05-04T15:51:13.344Z,30.62
2023-05-04T15:53:40.933Z,30.27
2023-05-04T15:56:08.659Z,30.11
2023-05-04T15:58:35.849Z,30.22
2023-05-04T16:01:04.313Z,30.69
2023-05-04T16:03:36.024Z,31.06
2023-05-04T16:06:05.579Z,31.20
2023-05-04T16:08:32.687Z,31.16
2023-05-04T16:10:59.712Z,31.27
2023-05-04T16:13:26.742Z,31.15
2023-05-04T16:15:54.077Z,31.18
2023-05-04T16:18:21.472Z,31.62
2023-05-04T16:20:48.949Z,31.98
2023-05-04T16:23:20.814Z,31.99
2023-05-04T16:25:51.107Z,31.98
2023-05-04T16:28:18.411Z,32.10
2023-05-04T16:30:46.011Z,32.31
2023-05-04T16:33:16.276Z,32.44
2023-05-04T16:35:43.958Z,32.48
2023-05-04T16:38:15.928Z,32.21
2023-05-04T16:40:46.842Z,32.28
2023-05-04T16:43:14.512Z,32.68
2023-05-04T16:45:44.640Z,33.06
2023-05-04T16:48:14.928Z,33.42
2023-05-04T16:50:41.978Z,33.46
2023-05-04T16:53:09.016Z,33.40
2023-05-04T16:55:36.533Z,33.49
2023-05-04T16:58:03.645Z,33.49
2023-05-04T17:00:31.727Z,32.90
2023-05-04T17:02:58.911Z,32.61
2023-05-04T17:05:26.759Z,32.74
2023-05-04T17:07:54.240Z,32.80
2023-05-04T17:10:25.267Z,32.92
2023-05-04T17:12:55.895Z,33.16
2023-05-04T17:15:23.438Z,33.38
2023-05-04T17:17:54.747Z,33.48
2023-05-04T17:20:28.818Z,33.12
2023-05-04T17:22:59.398Z,32.33
2023-05-04T17:25:27.289Z,31.33
2023-05-04T17:27:54.892Z,31.26
2023-05-04T17:30:22.268Z,31.72
2023-05-04T17:32:49.361Z,32.05
2023-05-04T17:35:25.122Z,32.36
2023-05-04T17:37:58.032Z,31.81
2023-05-04T17:40:27.750Z,30.90
2023-05-04T17:42:55.972Z,30.12
2023-05-04T17:45:23.246Z,29.92
2023-05-04T17:47:53.512Z,29.72
2023-05-04T17:50:21.322Z,29.29
2023-05-04T17:52:53.787Z,28.95
2023-05-04T17:55:23.491Z,28.65
2023-05-04T17:57:52.401Z,28.41
2023-05-04T18:00:20.114Z,28.11
2023-05-04T18:02:47.327Z,27.84
2023-05-04T18:05:14.647Z,27.55
2023-05-04T18:07:44.267Z,27.28
2023-05-04T18:10:11.854Z,26.96
2023-05-04T18:12:38.990Z,26.65
2023-05-04T18:15:09.000Z,26.45
2023-05-04T18:17:37.981Z,26.29
2023-05-04T18:20:10.542Z,26.16
2023-05-04T18:22:37.856Z,26.04
2023-05-04T18:25:05.790Z,25.92
2023-05-04T18:27:34.238Z,25.86
2023-05-04T18:30:03.470Z,25.73
2023-05-04T18:32:30.685Z,25.68
2023-05-04T18:35:01.542Z,25.64
2023-05-04T18:37:31.759Z,25.55
2023-05-04T18:39:59.378Z,25.48
2023-05-04T18:42:27.028Z,25.36
2023-05-04T18:44:54.930Z,25.21
2023-05-04T18:47:22.364Z,25.08
2023-05-04T18:49:54.739Z,24.94
2023-05-04T18:52:22.191Z,24.85
2023-05-04T18:54:51.107Z,24.74
2023-05-04T18:57:18.379Z,24.66
2023-05-04T18:59:46.260Z,24.56
2023-05-04T19:02:13.420Z,24.47
2023-05-04T19:04:40.622Z,24.38
2023-05-04T19:07:09.986Z,24.28
2023-05-04T19:09:37.581Z,24.18
2023-05-04T19:12:05.204Z,24.07
2023-05-04T19:14:32.877Z,23.99
2023-05-04T19:17:00.887Z,23.89
2023-05-04T19:19:27.989Z,23.84
2023-05-04T19:21:55.600Z,23.76
2023-05-04T19:24:22.799Z,23.68
2023-05-04T19:26:49.891Z,23.59
2023-05-04T19:29:16.921Z,23.49
2023-05-04T19:31:44.113Z,23.41
2023-05-04T19:34:11.845Z,23.33
2023-05-04T19:36:39.629Z,23.22
2023-05-04T19:39:06.876Z,23.11
2023-05-04T19:41:33.939Z,23.01
2023-05-04T19:44:01.101Z,22.91
2023-05-04T19:46:29.750Z,22.83
2023-05-04T19:48:56.951Z,22.73
2023-05-04T19:51:24.035Z,22.68
2023-05-04T19:53:51.229Z,22.65
2023-05-04T19:56:18.341Z,22.60
2023-05-04T19:58:45.419Z,22.55
2023-05-04T20:01:12.737Z,22.51
2023-05-04T20:03:39.737Z,22.46
2023-05-04T20:06:07.350Z,22.39
2023-05-04T20:08:34.549Z,22.32
2023-05-04T20:11:01.553Z,22.26
2023-05-04T20:13:28.665Z,22.18
2023-05-04T20:15:56.164Z,22.13
2023-05-04T20:18:23.442Z,22.09
2023-05-04T20:20:52.137Z,22.02
2023-05-04T20:23:19.331Z,21.97
2023-05-04T20:25:46.465Z,21.87
2023-05-04T20:28:13.555Z,21.81
2023-05-04T20:30:40.781Z,21.74
2023-05-04T20:33:07.949Z,21.67
2023-05-04T20:35:35.104Z,21.58
2023-05-04T20:38:02.552Z,21.50
2023-05-04T20:40:29.641Z,21.44
2023-05-04T20:42:56.858Z,21.38
2023-05-04T20:45:23.954Z,21.33
2023-05-04T20:47:51.099Z,21.25
2023-05-04T20:50:19.078Z,21.18
2023-05-04T20:52:46.217Z,21.12
2023-05-04T20:55:13.342Z,21.05
2023-05-04T20:57:40.396Z,21.00
2023-05-04T21:00:08.804Z,20.92
2023-05-04T21:02:36.172Z,20.85
2023-05-04T21:05:03.382Z,20.85
2023-05-04T21:07:30.465Z,20.81
2023-05-04T21:10:14.503Z,20.79
2023-05-04T21:12:41.525Z,20.74
2023-05-04T21:15:10.954Z,20.69
2023-05-04T21:17:38.148Z,20.65
2023-05-04T21:20:06.368Z,20.63
2023-05-04T21:22:33.630Z,20.60
2023-05-04T21:25:00.643Z,20.58
2023-05-04T21:27:27.634Z,20.55
2023-05-04T21:29:54.692Z,20.51
2023-05-04T21:32:21.725Z,20.49
2023-05-04T21:34:55.340Z,20.47
2023-05-04T21:37:22.345Z,20.46
2023-05-04T21:39:54.658Z,20.44
2023-05-04T21:42:22.965Z,20.42
2023-05-04T21:44:56.977Z,20.38
2023-05-04T21:47:25.157Z,20.38
2023-05-04T21:49:53.603Z,20.37
2023-05-04T21:52:21.516Z,20.35
2023-05-04T21:54:49.026Z,20.35
2023-05-04T21:57:16.242Z,20.35
2023-05-04T21:59:43.265Z,20.36
2023-05-04T22:02:10.449Z,20.36
2023-05-04T22:04:41.561Z,20.34
2023-05-04T22:07:10.961Z,20.31
2023-05-04T22:09:38.044Z,20.28
2023-05-04T22:12:05.725Z,20.23
2023-05-04T22:14:32.987Z,20.22
2023-05-04T22:17:00.376Z,20.19
2023-05-04T22:19:27.589Z,20.15
2023-05-04T22:21:55.307Z,20.12
2023-05-04T22:24:22.374Z,20.11
2023-05-04T22:26:49.416Z,20.09
2023-05-04T22:29:16.421Z,20.09
2023-05-04T22:31:43.428Z,20.10
2023-05-04T22:34:12.832Z,20.11
2023-05-04T22:36:40.010Z,20.10
2023-05-04T22:39:07.067Z,20.10
2023-05-04T22:41:34.100Z,20.08
2023-05-04T22:44:01.163Z,20.08
2023-05-04T22:46:28.134Z,20.07
2023-05-04T22:48:55.264Z,20.03
2023-05-04T22:51:23.384Z,19.98
2023-05-04T22:53:51.205Z,19.93
2023-05-04T22:56:18.317Z,19.89
2023-05-04T22:58:48.655Z,19.88
2023-05-04T23:01:15.672Z,19.87
2023-05-04T23:03:43.346Z,19.89
2023-05-04T23:06:10.495Z,19.90
2023-05-04T23:08:37.540Z,19.92
2023-05-04T23:11:08.053Z,19.93
2023-05-04T23:13:36.153Z,19.93
2023-05-04T23:16:03.958Z,19.93
2023-05-04T23:18:33.050Z,19.93
2023-05-04T23:21:00.351Z,19.92
2023-05-04T23:23:27.518Z,19.91
2023-05-04T23:25:54.551Z,19.88
2023-05-04T23:28:21.820Z,19.87
2023-05-04T23:30:49.949Z,19.85
2023-05-04T23:33:16.948Z,19.83
2023-05-04T23:35:43.961Z,19.80
2023-05-04T23:38:11.084Z,19.77
2023-05-04T23:40:38.087Z,19.73
2023-05-04T23:43:05.044Z,19.68
2023-05-04T23:45:32.338Z,19.62
2023-05-04T23:48:02.358Z,19.57
2023-05-04T23:50:29.467Z,19.52
2023-05-04T23:52:56.628Z,19.48
2023-05-04T23:55:23.671Z,19.44
2023-05-04T23:57:51.409Z,19.38
